Coffs Harbour, Australia
Current Conditions -  °F | °C
As of 5:30 AM on Friday 31 Oct 2014 (Local Time) from YCFS Reporting Station
Clear Clear  
Wind Chill: 63°   Ceiling: Unl
Heat Index: 63°   Visibility: 6mi
Dew Point: 61°   Wind: 5mph
Humidity: 94%   Direction: 20°NNE
Pressure: 29.94"   Gusts: NA
Location:  30.28°S, 153.13°E
Report Text: YCFS 301830Z AUTO 02004KT 9999 // NCD 17/16 Q1014
Loading
Personal Weather Stations






























Interactive Weather Map
Tropical Storm Tracking
New forecast layout! Learn more

10-Day Weather Forecast

Advertisements
Track Severe Weather on mobile